createdAt,value
2023-03-01T00:00:52.931Z,-3.75
2023-03-01T00:03:59.301Z,-3.76
2023-03-01T00:07:06.021Z,-3.74
2023-03-01T00:10:15.583Z,-3.80
2023-03-01T00:13:21.795Z,-3.74
2023-03-01T00:16:31.905Z,-3.76
2023-03-01T00:19:38.992Z,-3.70
2023-03-01T00:22:44.349Z,-3.63
2023-03-01T00:25:53.730Z,-3.56
2023-03-01T00:29:01.248Z,-3.48
2023-03-01T00:32:08.527Z,-3.39
2023-03-01T00:35:14.013Z,-3.33
2023-03-01T00:38:20.362Z,-3.30
2023-03-01T00:41:30.553Z,-3.33
2023-03-01T00:44:36.925Z,-3.22
2023-03-01T00:47:42.320Z,-3.19
2023-03-01T00:50:48.637Z,-3.18
2023-03-01T00:53:55.691Z,-3.16
2023-03-01T00:57:04.719Z,-3.16
2023-03-01T01:00:12.744Z,-3.16
2023-03-01T01:03:18.974Z,-3.16
2023-03-01T01:06:27.862Z,-3.14
2023-03-01T01:09:35.518Z,-3.12
2023-03-01T01:12:43.614Z,-3.16
2023-03-01T01:15:49.941Z,-3.22
2023-03-01T01:18:56.611Z,-3.25
2023-03-01T01:22:03.266Z,-3.26
2023-03-01T01:25:09.702Z,-3.31
2023-03-01T01:28:18.729Z,-3.43
2023-03-01T01:31:27.195Z,-3.47
2023-03-01T01:34:33.625Z,-3.52
2023-03-01T01:37:39.243Z,-3.61
2023-03-01T01:40:49.738Z,-3.63
2023-03-01T01:44:21.767Z,-3.60
2023-03-01T01:47:29.513Z,-3.55
2023-03-01T01:50:42.010Z,-3.51
2023-03-01T01:53:55.362Z,-3.47
2023-03-01T01:57:10.627Z,-3.42
2023-03-01T02:00:25.803Z,-3.64
2023-03-01T02:03:38.972Z,-3.33
2023-03-01T02:06:55.824Z,-3.33
2023-03-01T02:10:02.670Z,-3.33
2023-03-01T02:13:09.221Z,-3.34
2023-03-01T02:16:20.652Z,-3.34
2023-03-01T02:19:52.165Z,-3.36
2023-03-01T02:22:59.564Z,-3.37
2023-03-01T02:26:20.582Z,-3.38
2023-03-01T02:29:32.043Z,-3.43
2023-03-01T02:32:39.260Z,-3.35
2023-03-01T02:35:45.181Z,-3.39
2023-03-01T02:38:55.658Z,-4.90
2023-03-01T02:42:02.811Z,-3.62
2023-03-01T02:45:13.338Z,-3.74
2023-03-01T02:48:18.814Z,-3.82
2023-03-01T02:51:52.407Z,-3.87
2023-03-01T02:55:07.471Z,-3.93
2023-03-01T02:58:14.846Z,-4.00
2023-03-01T03:01:24.130Z,-4.00
2023-03-01T03:04:30.811Z,-4.02
2023-03-01T03:07:38.103Z,-4.08
2023-03-01T03:10:46.079Z,-4.10
2023-03-01T03:13:52.360Z,-4.14
2023-03-01T03:17:01.602Z,-4.14
2023-03-01T03:20:12.051Z,-4.13
2023-03-01T03:23:18.354Z,-4.11
2023-03-01T03:26:23.883Z,-4.08
2023-03-01T03:29:30.332Z,-4.06
2023-03-01T03:32:39.314Z,-4.03
2023-03-01T03:35:50.924Z,-4.00
2023-03-01T03:38:56.613Z,-3.92
2023-03-01T03:42:02.951Z,-3.88
2023-03-01T03:45:09.449Z,-3.88
2023-03-01T03:48:20.605Z,-3.81
2023-03-01T03:51:26.682Z,-3.74
2023-03-01T03:54:33.102Z,-3.69
2023-03-01T03:57:38.504Z,-3.72
2023-03-01T04:00:48.399Z,-3.83
2023-03-01T04:03:56.560Z,-3.95
2023-03-01T04:07:02.983Z,-4.01
2023-03-01T04:10:11.360Z,-4.05
2023-03-01T04:13:21.369Z,-4.08
2023-03-01T04:16:27.607Z,-4.09
2023-03-01T04:19:37.717Z,-4.08
2023-03-01T04:22:44.569Z,-4.09
2023-03-01T04:25:55.068Z,-4.12
2023-03-01T04:29:00.579Z,-4.11
2023-03-01T04:32:07.748Z,-4.10
2023-03-01T04:35:16.586Z,-4.08
2023-03-01T04:38:25.116Z,-4.09
2023-03-01T04:41:30.796Z,-4.07
2023-03-01T04:44:37.014Z,-4.05
2023-03-01T04:47:43.854Z,-4.01
2023-03-01T04:50:52.830Z,-3.97
2023-03-01T04:53:58.496Z,-3.96
2023-03-01T04:57:05.451Z,-3.91
2023-03-01T05:00:23.846Z,-3.87
2023-03-01T05:03:30.290Z,-3.85
2023-03-01T05:06:38.837Z,-3.86
2023-03-01T05:09:45.012Z,-3.85
2023-03-01T05:12:50.694Z,-3.84
2023-03-01T05:16:00.551Z,-3.86
2023-03-01T05:19:12.911Z,-3.86
2023-03-01T05:22:21.933Z,-3.87
2023-03-01T05:25:27.556Z,-3.88
2023-03-01T05:28:34.681Z,-3.87
2023-03-01T05:31:40.025Z,-3.86
2023-03-01T05:34:47.542Z,-3.86
2023-03-01T05:37:56.114Z,-3.87
2023-03-01T05:41:02.337Z,-3.87
2023-03-01T05:44:09.925Z,-3.85
2023-03-01T05:47:16.183Z,-3.84
2023-03-01T05:50:26.455Z,-3.91
2023-03-01T05:53:35.489Z,-3.96
2023-03-01T05:56:41.372Z,-4.44
2023-03-01T05:59:47.588Z,-4.08
2023-03-01T06:02:53.538Z,-4.11
2023-03-01T06:06:00.929Z,-4.13
2023-03-01T06:09:11.030Z,-4.13
2023-03-01T06:12:17.212Z,-4.14
2023-03-01T06:15:24.292Z,-4.11
2023-03-01T06:18:30.547Z,-4.05
2023-03-01T06:21:35.914Z,-3.97
2023-03-01T06:24:45.203Z,-3.86
2023-03-01T06:27:53.352Z,-3.80
2023-03-01T06:30:59.590Z,-4.02
2023-03-01T06:34:06.089Z,-3.82
2023-03-01T06:37:12.489Z,-3.85
2023-03-01T06:40:22.412Z,-3.77
2023-03-01T06:43:29.004Z,-3.75
2023-03-01T06:46:34.705Z,-3.68
2023-03-01T06:49:41.055Z,-3.58
2023-03-01T06:56:00.304Z,-3.41
2023-03-01T06:59:06.676Z,-3.32
2023-03-01T07:02:15.219Z,-3.22
2023-03-01T07:05:21.349Z,-3.16
2023-03-01T07:08:27.751Z,-3.06
2023-03-01T07:11:36.265Z,-2.96
2023-03-01T07:14:42.775Z,-2.85
2023-03-01T07:17:51.195Z,-2.70
2023-03-01T07:20:57.502Z,-2.58
2023-03-01T07:24:02.862Z,-2.45
2023-03-01T07:27:11.930Z,-2.36
2023-03-01T07:30:17.658Z,-2.29
2023-03-01T07:33:24.204Z,-2.19
2023-03-01T07:36:30.157Z,-2.10
2023-03-01T07:39:36.648Z,-1.99
2023-03-01T07:42:44.831Z,-1.87
2023-03-01T07:45:51.348Z,-2.23
2023-03-01T07:48:59.225Z,-1.69
2023-03-01T07:52:05.496Z,-1.57
2023-03-01T07:55:12.360Z,-1.46
2023-03-01T07:58:21.392Z,-1.32
2023-03-01T08:01:27.081Z,-1.26
2023-03-01T08:04:33.738Z,-1.20
2023-03-01T08:07:39.334Z,-1.13
2023-03-01T08:10:45.587Z,-1.07
2023-03-01T08:13:54.545Z,-1.03
2023-03-01T08:17:01.049Z,-1.19
2023-03-01T08:20:08.272Z,-1.06
2023-03-01T08:23:15.342Z,-1.07
2023-03-01T08:26:24.690Z,-1.14
2023-03-01T08:29:36.078Z,-2.27
2023-03-01T08:32:43.307Z,-1.04
2023-03-01T08:35:49.576Z,-1.00
2023-03-01T08:38:56.003Z,-0.93
2023-03-01T08:42:02.230Z,-0.82
2023-03-01T08:45:12.734Z,-0.75
2023-03-01T08:48:19.059Z,-0.70
2023-03-01T08:51:26.113Z,-0.66
2023-03-01T08:54:32.794Z,-0.55
2023-03-01T08:57:38.208Z,-0.51
2023-03-01T09:00:47.304Z,-0.47
2023-03-01T09:03:52.798Z,-0.45
2023-03-01T09:06:59.566Z,-0.42
2023-03-01T09:10:05.043Z,-0.38
2023-03-01T09:13:11.396Z,-0.28
2023-03-01T09:16:22.735Z,-0.15
2023-03-01T09:19:31.251Z,-0.13
2023-03-01T09:22:38.093Z,-0.09
2023-03-01T09:25:44.466Z,-0.14
2023-03-01T09:28:50.712Z,-0.22
2023-03-01T09:31:59.820Z,-0.19
2023-03-01T09:35:06.051Z,-0.18
2023-03-01T09:38:12.443Z,-0.13
2023-03-01T09:41:47.807Z,-0.08
2023-03-01T09:45:02.146Z,-0.04
2023-03-01T09:48:23.177Z,0.05
2023-03-01T09:51:36.464Z,0.10
2023-03-01T09:54:42.097Z,0.18
2023-03-01T09:57:57.714Z,0.20
2023-03-01T10:01:24.114Z,0.26
2023-03-01T10:04:51.182Z,0.29
2023-03-01T10:08:32.395Z,0.30
2023-03-01T10:11:43.445Z,0.40
2023-03-01T10:15:03.602Z,0.46
2023-03-01T10:18:22.861Z,0.52
2023-03-01T10:21:33.966Z,0.60
2023-03-01T10:24:41.616Z,0.36
2023-03-01T10:27:57.617Z,0.74
2023-03-01T10:31:04.576Z,0.82
2023-03-01T10:34:16.282Z,0.84
2023-03-01T10:37:28.956Z,0.83
2023-03-01T10:40:34.890Z,0.88
2023-03-01T10:43:51.202Z,0.99
2023-03-01T10:47:05.273Z,1.02
2023-03-01T10:50:25.107Z,1.05
2023-03-01T10:53:39.607Z,0.92
2023-03-01T10:56:56.738Z,1.05
2023-03-01T11:00:22.131Z,1.09
2023-03-01T11:03:32.539Z,1.09
2023-03-01T11:06:40.961Z,1.19
2023-03-01T11:09:50.354Z,1.31
2023-03-01T11:12:57.787Z,1.35
2023-03-01T11:16:08.126Z,1.40
2023-03-01T11:19:25.544Z,1.43
2023-03-01T11:22:34.928Z,1.43
2023-03-01T11:25:50.106Z,-0.66
2023-03-01T11:29:06.260Z,1.60
2023-03-01T11:32:17.873Z,1.72
2023-03-01T11:35:34.323Z,1.66
2023-03-01T11:38:43.048Z,1.73
2023-03-01T11:42:18.078Z,1.81
2023-03-01T11:45:32.126Z,1.86
2023-03-01T11:49:00.109Z,1.90
2023-03-01T11:52:22.854Z,1.82
2023-03-01T11:56:07.232Z,1.97
2023-03-01T12:00:10.971Z,2.06
2023-03-01T12:03:56.339Z,2.22
2023-03-01T12:07:05.352Z,2.12
2023-03-01T12:10:29.728Z,2.31
2023-03-01T12:14:37.457Z,2.36
2023-03-01T12:18:17.144Z,2.42
2023-03-01T12:21:52.344Z,2.39
2023-03-01T12:25:25.879Z,2.41
2023-03-01T12:28:56.347Z,2.42
2023-03-01T12:32:38.658Z,2.26
2023-03-01T12:36:17.649Z,2.39
2023-03-01T12:39:51.159Z,2.34
2023-03-01T12:43:20.071Z,2.40
2023-03-01T12:46:53.819Z,2.43
2023-03-01T12:50:07.193Z,2.44
2023-03-01T12:53:28.834Z,2.44
2023-03-01T12:56:41.943Z,2.49
2023-03-01T13:00:11.434Z,2.57
2023-03-01T13:03:35.493Z,2.70
2023-03-01T13:06:58.563Z,2.48
2023-03-01T13:10:29.475Z,2.73
2023-03-01T13:13:36.273Z,2.79
2023-03-01T13:16:50.320Z,2.86
2023-03-01T13:20:05.192Z,2.82
2023-03-01T13:23:27.679Z,2.84
2023-03-01T13:27:33.471Z,2.83
2023-03-01T13:30:46.390Z,2.86
2023-03-01T13:33:54.382Z,2.90
2023-03-01T13:37:14.986Z,2.88
2023-03-01T13:41:07.864Z,2.90
2023-03-01T13:44:32.452Z,2.92
2023-03-01T13:47:45.749Z,2.90
2023-03-01T13:50:59.113Z,2.99
2023-03-01T13:54:05.567Z,3.05
2023-03-01T13:57:29.897Z,3.05
2023-03-01T14:00:44.722Z,3.06
2023-03-01T14:03:50.732Z,3.07
2023-03-01T14:07:14.932Z,3.13
2023-03-01T14:10:22.022Z,3.18
2023-03-01T14:13:52.463Z,3.16
2023-03-01T14:17:25.296Z,3.17
2023-03-01T14:20:36.637Z,3.17
2023-03-01T14:23:47.975Z,3.22
2023-03-01T14:26:55.158Z,3.25
2023-03-01T14:30:03.713Z,3.26
2023-03-01T14:33:27.029Z,3.31
2023-03-01T14:36:35.599Z,3.31
2023-03-01T14:39:42.082Z,3.34
2023-03-01T14:42:47.869Z,3.31
2023-03-01T14:45:55.924Z,3.35
2023-03-01T14:49:11.071Z,3.36
2023-03-01T14:52:31.097Z,3.35
2023-03-01T14:55:42.799Z,3.31
2023-03-01T14:58:51.298Z,3.25
2023-03-01T15:02:02.200Z,3.28
2023-03-01T15:05:14.013Z,3.30
2023-03-01T15:08:27.180Z,3.26
2023-03-01T15:11:38.099Z,3.22
2023-03-01T15:15:02.594Z,3.22
2023-03-01T15:18:22.323Z,3.21
2023-03-01T15:21:35.900Z,3.26
2023-03-01T15:24:42.565Z,3.30
2023-03-01T15:27:51.566Z,3.31
2023-03-01T15:31:04.251Z,3.32
2023-03-01T15:34:26.631Z,3.23
2023-03-01T15:37:49.673Z,3.29
2023-03-01T15:40:56.901Z,2.95
2023-03-01T15:44:19.502Z,3.37
2023-03-01T15:47:34.004Z,3.40
2023-03-01T15:50:41.845Z,3.38
2023-03-01T15:53:56.839Z,3.39
2023-03-01T15:57:03.208Z,3.41
2023-03-01T16:00:14.610Z,3.38
2023-03-01T16:03:23.129Z,3.34
2023-03-01T16:06:29.884Z,3.32
2023-03-01T16:09:39.332Z,3.29
2023-03-01T16:12:44.720Z,3.19
2023-03-01T16:15:51.210Z,3.10
2023-03-01T16:18:57.055Z,3.02
2023-03-01T16:22:03.290Z,2.99
2023-03-01T16:25:14.176Z,2.92
2023-03-01T16:28:20.596Z,2.90
2023-03-01T16:31:27.660Z,2.82
2023-03-01T16:34:33.943Z,2.76
2023-03-01T16:37:40.674Z,2.68
2023-03-01T16:40:54.713Z,2.56
2023-03-01T16:44:00.226Z,2.50
2023-03-01T16:47:06.520Z,2.39
2023-03-01T16:50:14.032Z,2.33
2023-03-01T16:53:20.484Z,2.27
2023-03-01T16:56:28.797Z,2.21
2023-03-01T16:59:35.349Z,2.14
2023-03-01T17:02:42.024Z,2.07
2023-03-01T17:05:48.663Z,1.98
2023-03-01T17:08:54.322Z,1.88
2023-03-01T17:12:03.325Z,1.83
2023-03-01T17:15:10.843Z,1.75
2023-03-01T17:18:17.188Z,1.71
2023-03-01T17:21:22.864Z,1.66
2023-03-01T17:24:30.239Z,1.60
2023-03-01T17:27:39.858Z,1.56
2023-03-01T17:30:48.200Z,1.51
2023-03-01T17:33:54.370Z,1.45
2023-03-01T17:37:02.274Z,1.18
2023-03-01T17:40:09.606Z,1.42
2023-03-01T17:43:20.861Z,1.40
2023-03-01T17:46:27.137Z,1.39
2023-03-01T17:49:34.027Z,1.37
2023-03-01T17:52:39.767Z,1.32
2023-03-01T17:55:49.893Z,1.29
2023-03-01T17:58:58.221Z,1.23
2023-03-01T18:02:05.059Z,1.18
2023-03-01T18:05:11.846Z,1.12
2023-03-01T18:08:18.102Z,1.10
2023-03-01T18:11:24.459Z,1.06
2023-03-01T18:14:34.263Z,1.03
2023-03-01T18:17:39.879Z,1.01
2023-03-01T18:20:46.145Z,0.98
2023-03-01T18:23:51.609Z,0.92
2023-03-01T18:26:57.863Z,0.86
2023-03-01T18:30:07.464Z,0.81
2023-03-01T18:33:13.665Z,0.76
2023-03-01T18:36:26.739Z,0.70
2023-03-01T18:39:33.017Z,0.64
2023-03-01T18:42:38.492Z,0.61
2023-03-01T18:45:48.022Z,0.57
2023-03-01T18:48:55.810Z,0.54
2023-03-01T18:52:02.124Z,0.51
2023-03-01T18:55:09.071Z,0.42
2023-03-01T18:58:15.310Z,0.35
2023-03-01T19:01:28.548Z,0.29
2023-03-01T19:04:34.861Z,0.23
2023-03-01T19:07:40.248Z,0.20
2023-03-01T19:10:46.778Z,0.16
2023-03-01T19:13:53.749Z,0.12
2023-03-01T19:17:02.801Z,0.09
2023-03-01T19:20:10.233Z,0.07
2023-03-01T19:23:16.516Z,0.04
2023-03-01T19:26:24.922Z,0.02
2023-03-01T19:29:31.161Z,-0.01
2023-03-01T19:32:39.483Z,-0.04
2023-03-01T19:35:46.027Z,-0.05
2023-03-01T19:38:52.343Z,-0.07
2023-03-01T19:41:59.354Z,-0.04
2023-03-01T19:45:04.899Z,0.00
2023-03-01T19:48:14.096Z,0.00
2023-03-01T19:51:19.597Z,-0.02
2023-03-01T19:54:26.074Z,-0.05
2023-03-01T19:57:32.226Z,-0.09
2023-03-01T20:00:39.276Z,-0.12
2023-03-01T20:03:47.719Z,-0.19
2023-03-01T20:06:54.082Z,-0.25
2023-03-01T20:09:59.525Z,-0.29
2023-03-01T20:13:05.930Z,-0.32
2023-03-01T20:16:12.914Z,-0.37
2023-03-01T20:19:22.176Z,-0.42
2023-03-01T20:22:27.622Z,-0.48
2023-03-01T20:25:34.219Z,-0.56
2023-03-01T20:28:41.666Z,-0.65
2023-03-01T20:31:49.323Z,-0.72
2023-03-01T20:34:57.612Z,-0.80
2023-03-01T20:38:03.961Z,-0.86
2023-03-01T20:41:12.937Z,-0.90
2023-03-01T20:44:19.220Z,-0.93
2023-03-01T20:47:24.895Z,-0.94
2023-03-01T20:50:34.284Z,-0.94
2023-03-01T20:53:40.303Z,-0.92
2023-03-01T20:56:46.949Z,-0.89
2023-03-01T20:59:52.624Z,-0.88
2023-03-01T21:02:59.278Z,-0.88
2023-03-01T21:06:09.227Z,-0.90
2023-03-01T21:09:16.044Z,-1.05
2023-03-01T21:12:21.432Z,-0.93
2023-03-01T21:15:29.621Z,-0.93
2023-03-01T21:18:37.131Z,-0.94
2023-03-01T21:21:46.116Z,-0.97
2023-03-01T21:24:51.863Z,-1.02
2023-03-01T21:27:58.070Z,-1.06
2023-03-01T21:31:09.989Z,-1.09
2023-03-01T21:34:16.990Z,-1.10
2023-03-01T21:37:29.830Z,-1.13
2023-03-01T21:40:36.138Z,-1.16
2023-03-01T21:43:44.200Z,-1.18
2023-03-01T21:46:52.782Z,-1.20
2023-03-01T21:49:58.093Z,-1.31
2023-03-01T21:53:07.357Z,-1.31
2023-03-01T21:56:18.271Z,-1.75
2023-03-01T21:59:28.534Z,-1.34
2023-03-01T22:02:33.875Z,-1.35
2023-03-01T22:05:40.178Z,-1.37
2023-03-01T22:08:50.647Z,-1.41
2023-03-01T22:12:02.759Z,-1.47
2023-03-01T22:15:10.250Z,-1.53
2023-03-01T22:18:18.320Z,-1.57
2023-03-01T22:21:25.083Z,-1.59
2023-03-01T22:24:34.262Z,-1.61
2023-03-01T22:27:40.364Z,-1.64
2023-03-01T22:30:47.793Z,-1.81
2023-03-01T22:33:54.956Z,-1.64
2023-03-01T22:37:01.167Z,-1.62
2023-03-01T22:40:12.312Z,-1.63
2023-03-01T22:43:18.596Z,-1.65
2023-03-01T22:46:24.112Z,-1.65
2023-03-01T22:49:30.517Z,-1.64
2023-03-01T22:52:36.365Z,-1.63
2023-03-01T22:55:46.026Z,-1.90
2023-03-01T22:58:52.180Z,-1.69
2023-03-01T23:01:58.811Z,-1.70
2023-03-01T23:05:04.345Z,-1.72
2023-03-01T23:08:10.792Z,-1.75
2023-03-01T23:11:22.255Z,-1.76
2023-03-01T23:14:35.337Z,-1.76
2023-03-01T23:17:41.248Z,-1.79
2023-03-01T23:20:54.021Z,-1.84
2023-03-01T23:23:59.986Z,-1.87
2023-03-01T23:27:09.213Z,-1.91
2023-03-01T23:30:15.529Z,-1.91
2023-03-01T23:33:21.753Z,-1.89
2023-03-01T23:36:31.433Z,-1.89
2023-03-01T23:39:38.159Z,-1.91
2023-03-01T23:42:46.534Z,-1.93
2023-03-01T23:45:57.256Z,-1.96
2023-03-01T23:49:05.040Z,-1.97
2023-03-01T23:52:15.414Z,-1.98
2023-03-01T23:55:22.597Z,-1.99
2023-03-01T23:58:32.510Z,-2.01
